createdAt,value
2022-11-27T00:01:37.384Z,5.67
2022-11-27T00:04:06.926Z,5.77
2022-11-27T00:06:38.383Z,5.78
2022-11-27T00:09:09.676Z,5.79
2022-11-27T00:11:41.732Z,5.82
2022-11-27T00:14:13.166Z,5.81
2022-11-27T00:16:43.024Z,5.81
2022-11-27T00:19:11.930Z,5.86
2022-11-27T00:21:41.545Z,5.78
2022-11-27T00:24:12.055Z,5.72
2022-11-27T00:26:41.642Z,5.65
2022-11-27T00:29:10.703Z,5.61
2022-11-27T00:31:40.119Z,5.62
2022-11-27T00:34:11.512Z,5.67
2022-11-27T00:36:46.632Z,5.65
2022-11-27T00:39:18.278Z,5.52
2022-11-27T00:41:47.266Z,5.70
2022-11-27T00:44:15.279Z,5.76
2022-11-27T00:46:44.302Z,5.74
2022-11-27T00:49:16.312Z,5.76
2022-11-27T00:51:46.889Z,5.69
2022-11-27T00:54:15.637Z,5.63
2022-11-27T00:56:44.644Z,5.58
2022-11-27T00:59:13.680Z,5.72
2022-11-27T01:01:45.892Z,5.70
2022-11-27T01:04:17.062Z,5.58
2022-11-27T01:06:45.624Z,5.55
2022-11-27T01:09:15.890Z,5.69
2022-11-27T01:11:44.510Z,5.62
2022-11-27T01:14:18.698Z,5.58
2022-11-27T01:16:49.339Z,5.42
2022-11-27T01:19:17.137Z,5.51
2022-11-27T01:21:49.487Z,5.50
2022-11-27T01:24:18.293Z,5.37
2022-11-27T01:26:47.387Z,5.55
2022-11-27T01:29:15.720Z,5.43
2022-11-27T01:31:45.258Z,5.46
2022-11-27T01:34:18.040Z,5.61
2022-11-27T01:36:46.298Z,5.64
2022-11-27T01:39:21.786Z,5.55
2022-11-27T01:41:51.830Z,5.51
2022-11-27T01:44:28.667Z,5.56
2022-11-27T01:47:02.668Z,5.44
2022-11-27T01:49:40.619Z,5.42
2022-11-27T01:52:18.136Z,5.51
2022-11-27T01:54:56.921Z,5.52
2022-11-27T01:57:36.259Z,5.42
2022-11-27T02:00:08.538Z,5.47
2022-11-27T02:02:39.882Z,5.49
2022-11-27T02:05:09.825Z,5.50
2022-11-27T02:07:38.442Z,5.47
2022-11-27T02:10:10.316Z,5.45
2022-11-27T02:12:56.149Z,5.41
2022-11-27T02:15:50.783Z,5.45
2022-11-27T02:18:33.715Z,5.44
2022-11-27T02:21:18.427Z,5.46
2022-11-27T02:24:24.530Z,5.35
2022-11-27T02:27:39.326Z,5.36
2022-11-27T02:30:07.905Z,5.38
2022-11-27T02:32:44.077Z,5.49
2022-11-27T02:35:20.866Z,5.38
2022-11-27T02:38:02.763Z,5.39
2022-11-27T02:40:42.790Z,5.44
2022-11-27T02:43:14.344Z,5.37
2022-11-27T02:45:52.464Z,5.42
2022-11-27T02:48:26.695Z,5.37
2022-11-27T02:50:56.421Z,5.40
2022-11-27T02:53:32.159Z,5.29
2022-11-27T02:56:03.801Z,5.32
2022-11-27T02:58:34.478Z,5.18
2022-11-27T03:01:04.269Z,5.25
2022-11-27T03:03:40.266Z,5.31
2022-11-27T03:06:18.293Z,5.29
2022-11-27T03:09:10.886Z,5.24
2022-11-27T03:11:42.653Z,5.21
2022-11-27T03:14:14.698Z,5.12
2022-11-27T03:17:21.606Z,5.15
2022-11-27T03:20:15.837Z,5.23
2022-11-27T03:22:47.421Z,5.26
2022-11-27T03:25:19.709Z,5.19
2022-11-27T03:27:54.914Z,5.28
2022-11-27T03:30:25.607Z,5.30
2022-11-27T03:32:54.710Z,5.13
2022-11-27T03:35:26.756Z,5.18
2022-11-27T03:37:56.038Z,5.35
2022-11-27T03:40:33.263Z,5.20
2022-11-27T03:43:15.441Z,5.16
2022-11-27T03:46:09.581Z,5.22
2022-11-27T03:49:13.520Z,5.25
2022-11-27T03:52:06.084Z,5.19
2022-11-27T03:54:45.087Z,5.08
2022-11-27T03:57:49.293Z,5.33
2022-11-27T04:00:17.939Z,5.22
2022-11-27T04:02:52.412Z,5.15
2022-11-27T04:05:21.824Z,5.12
2022-11-27T04:07:53.205Z,5.25
2022-11-27T04:10:23.715Z,5.31
2022-11-27T04:12:52.744Z,5.22
2022-11-27T04:15:21.375Z,5.25
2022-11-27T04:17:50.506Z,5.15
2022-11-27T04:20:19.122Z,5.18
2022-11-27T04:22:47.617Z,5.04
2022-11-27T04:25:18.829Z,5.04
2022-11-27T04:27:47.572Z,5.16
2022-11-27T04:30:17.433Z,5.16
2022-11-27T04:32:46.127Z,5.05
2022-11-27T04:35:15.776Z,5.11
2022-11-27T04:37:44.507Z,5.02
2022-11-27T04:43:07.339Z,5.13
2022-11-27T04:45:37.549Z,5.13
2022-11-27T04:48:06.547Z,5.04
2022-11-27T04:50:35.586Z,5.18
2022-11-27T04:53:04.180Z,5.17
2022-11-27T04:55:33.140Z,5.08
2022-11-27T04:58:02.236Z,5.02
2022-11-27T05:00:31.202Z,5.09
2022-11-27T05:02:59.267Z,5.04
2022-11-27T05:05:28.504Z,5.04
2022-11-27T05:07:58.235Z,4.96
2022-11-27T05:10:33.716Z,5.13
2022-11-27T05:13:17.395Z,5.10
2022-11-27T05:15:46.228Z,5.06
2022-11-27T05:18:16.306Z,5.08
2022-11-27T05:20:46.283Z,5.12
2022-11-27T05:23:15.709Z,5.16
2022-11-27T05:25:44.913Z,5.05
2022-11-27T05:28:13.205Z,5.07
2022-11-27T05:30:42.822Z,5.13
2022-11-27T05:33:11.297Z,5.22
2022-11-27T05:35:49.857Z,5.06
2022-11-27T05:38:18.242Z,5.11
2022-11-27T05:40:47.191Z,5.23
2022-11-27T05:43:16.277Z,5.14
2022-11-27T05:45:45.414Z,5.13
2022-11-27T05:48:14.110Z,5.21
2022-11-27T05:50:43.064Z,5.28
2022-11-27T05:53:13.176Z,5.28
2022-11-27T05:55:42.205Z,5.22
2022-11-27T05:58:10.241Z,5.10
2022-11-27T06:00:44.264Z,5.04
2022-11-27T06:03:17.302Z,4.99
2022-11-27T06:05:50.165Z,5.08
2022-11-27T06:08:20.504Z,5.08
2022-11-27T06:10:51.402Z,5.10
2022-11-27T06:13:21.228Z,5.16
2022-11-27T06:15:50.471Z,5.15
2022-11-27T06:18:19.126Z,5.20
2022-11-27T06:20:52.874Z,5.18
2022-11-27T06:23:22.563Z,5.18
2022-11-27T06:25:51.286Z,5.19
2022-11-27T06:28:21.299Z,5.21
2022-11-27T06:30:49.136Z,5.27
2022-11-27T06:33:18.651Z,5.25
2022-11-27T06:35:47.784Z,5.17
2022-11-27T06:38:16.276Z,5.26
2022-11-27T06:40:45.794Z,5.25
2022-11-27T06:43:14.231Z,5.18
2022-11-27T06:45:43.270Z,5.17
2022-11-27T06:48:12.964Z,5.19
2022-11-27T06:50:41.180Z,5.18
2022-11-27T06:53:11.524Z,5.24
2022-11-27T06:55:41.397Z,5.29
2022-11-27T06:58:12.304Z,5.30
2022-11-27T07:00:42.036Z,5.23
2022-11-27T07:03:10.307Z,5.22
2022-11-27T07:05:40.304Z,5.30
2022-11-27T07:08:11.217Z,5.28
2022-11-27T07:10:40.164Z,5.20
2022-11-27T07:13:09.285Z,5.36
2022-11-27T07:15:38.869Z,5.24
2022-11-27T07:18:10.440Z,5.38
2022-11-27T07:20:39.316Z,5.48
2022-11-27T07:23:10.695Z,5.40
2022-11-27T07:25:41.259Z,5.31
2022-11-27T07:28:17.392Z,5.37
2022-11-27T07:31:01.812Z,5.45
2022-11-27T07:33:45.965Z,5.38
2022-11-27T07:36:20.525Z,5.30
2022-11-27T07:38:54.186Z,5.33
2022-11-27T07:41:33.466Z,5.45
2022-11-27T07:44:06.981Z,5.38
2022-11-27T07:46:37.056Z,5.48
2022-11-27T07:49:13.095Z,5.52
2022-11-27T07:51:43.703Z,5.47
2022-11-27T07:54:16.530Z,5.50
2022-11-27T07:56:46.242Z,5.44
2022-11-27T08:02:14.156Z,5.47
2022-11-27T08:04:46.047Z,5.42
2022-11-27T08:07:16.133Z,5.38
2022-11-27T08:09:46.162Z,5.58
2022-11-27T08:12:16.761Z,5.51
2022-11-27T08:14:46.271Z,5.56
2022-11-27T08:17:16.256Z,5.56
2022-11-27T08:19:51.408Z,5.59
2022-11-27T08:22:21.150Z,5.51
2022-11-27T08:24:52.078Z,5.51
2022-11-27T08:27:25.807Z,5.44
2022-11-27T08:29:57.644Z,5.52
2022-11-27T08:32:28.134Z,5.57
2022-11-27T08:37:57.314Z,5.49
2022-11-27T08:40:26.439Z,5.47
2022-11-27T08:42:55.315Z,5.44
2022-11-27T08:45:24.159Z,5.46
2022-11-27T08:47:52.185Z,5.49
2022-11-27T08:50:21.428Z,5.63
2022-11-27T08:52:50.218Z,5.61
2022-11-27T08:55:19.242Z,5.56
2022-11-27T08:57:47.078Z,5.56
2022-11-27T09:00:27.738Z,5.59
2022-11-27T09:03:00.566Z,5.60
2022-11-27T09:05:32.257Z,5.62
2022-11-27T09:08:06.230Z,5.58
2022-11-27T09:10:34.123Z,5.61
2022-11-27T09:13:03.823Z,5.55
2022-11-27T09:15:32.145Z,5.58
2022-11-27T09:18:01.610Z,5.49
2022-11-27T09:20:30.603Z,5.61
2022-11-27T09:23:00.635Z,5.49
2022-11-27T09:25:30.585Z,5.52
2022-11-27T09:27:59.198Z,5.70
2022-11-27T09:30:28.293Z,5.65
2022-11-27T09:32:56.665Z,5.51
2022-11-27T09:35:30.281Z,5.57
2022-11-27T09:37:58.212Z,5.54
2022-11-27T09:40:26.503Z,5.51
2022-11-27T09:43:10.419Z,5.60
2022-11-27T09:45:49.460Z,5.66
2022-11-27T09:48:29.602Z,5.60
2022-11-27T09:51:32.184Z,5.64
2022-11-27T09:54:58.698Z,5.76
2022-11-27T09:57:38.261Z,5.57
2022-11-27T10:00:14.750Z,5.73
2022-11-27T10:02:45.787Z,5.64
2022-11-27T10:05:21.971Z,5.70
2022-11-27T10:08:09.649Z,5.66
2022-11-27T10:11:48.319Z,5.56
2022-11-27T10:14:35.454Z,5.64
2022-11-27T10:17:21.179Z,5.70
2022-11-27T10:20:30.164Z,5.70
2022-11-27T10:23:35.816Z,5.70
2022-11-27T10:26:16.251Z,5.82
2022-11-27T10:29:08.204Z,5.78
2022-11-27T10:32:01.640Z,5.77
2022-11-27T10:34:50.595Z,5.89
2022-11-27T10:38:06.556Z,5.80
2022-11-27T10:41:34.308Z,5.89
2022-11-27T10:44:29.815Z,5.98
2022-11-27T10:47:07.778Z,5.76
2022-11-27T10:49:40.690Z,5.82
2022-11-27T10:52:15.454Z,5.81
2022-11-27T10:54:51.424Z,5.84
2022-11-27T10:57:28.476Z,5.83
2022-11-27T11:00:09.961Z,5.91
2022-11-27T11:02:40.413Z,5.77
2022-11-27T11:08:19.453Z,5.82
2022-11-27T11:10:54.912Z,5.82
2022-11-27T11:13:30.426Z,5.83
2022-11-27T11:16:10.916Z,5.88
2022-11-27T11:18:54.104Z,5.93
2022-11-27T11:21:30.373Z,5.88
2022-11-27T11:24:23.319Z,5.87
2022-11-27T11:27:02.077Z,5.86
2022-11-27T11:29:41.680Z,5.78
2022-11-27T11:32:25.948Z,5.93
2022-11-27T11:35:00.802Z,5.81
2022-11-27T11:37:39.048Z,5.84
2022-11-27T11:40:52.223Z,5.96
2022-11-27T11:43:30.024Z,5.87
2022-11-27T11:46:23.141Z,5.89
2022-11-27T11:49:16.260Z,5.91
2022-11-27T11:52:33.907Z,5.91
2022-11-27T11:55:39.127Z,6.02
2022-11-27T11:58:59.335Z,5.98
2022-11-27T12:02:08.500Z,5.96
2022-11-27T12:04:53.579Z,6.00
2022-11-27T12:07:52.259Z,5.95
2022-11-27T12:11:10.948Z,5.96
2022-11-27T12:17:17.532Z,5.90
2022-11-27T12:19:56.612Z,5.90
2022-11-27T12:22:46.022Z,5.91
2022-11-27T12:25:39.135Z,5.89
2022-11-27T12:28:33.258Z,5.95
2022-11-27T12:31:39.949Z,5.96
2022-11-27T12:34:11.185Z,5.94
2022-11-27T12:37:01.414Z,6.05
2022-11-27T12:39:34.221Z,5.99
2022-11-27T12:42:47.847Z,5.94
2022-11-27T12:45:29.768Z,5.96
2022-11-27T12:48:40.155Z,6.02
2022-11-27T12:51:33.071Z,5.99
2022-11-27T12:54:09.025Z,5.96
2022-11-27T12:57:00.233Z,6.01
2022-11-27T13:03:15.882Z,6.07
2022-11-27T13:05:54.657Z,6.11
2022-11-27T13:08:40.333Z,6.19
2022-11-27T13:11:16.606Z,6.15
2022-11-27T13:13:54.482Z,6.19
2022-11-27T13:16:37.799Z,6.09
2022-11-27T13:19:44.194Z,5.99
2022-11-27T13:22:22.450Z,6.05
2022-11-27T13:24:51.820Z,6.06
2022-11-27T13:27:26.337Z,6.05
2022-11-27T13:30:08.145Z,6.11
2022-11-27T13:33:22.495Z,6.10
2022-11-27T13:36:03.070Z,6.03
2022-11-27T13:41:43.366Z,6.02
2022-11-27T13:44:31.995Z,6.12
2022-11-27T13:47:20.399Z,6.08
2022-11-27T13:50:19.698Z,6.17
2022-11-27T13:55:59.062Z,6.12
2022-11-27T13:58:43.522Z,6.05
2022-11-27T14:01:23.055Z,6.04
2022-11-27T14:03:54.913Z,6.14
2022-11-27T14:06:31.251Z,6.17
2022-11-27T14:09:07.137Z,6.04
2022-11-27T14:11:41.975Z,6.08
2022-11-27T14:14:23.361Z,6.11
2022-11-27T14:17:07.141Z,6.10
2022-11-27T14:19:46.314Z,6.05
2022-11-27T14:22:44.315Z,5.99
2022-11-27T14:25:38.777Z,6.03
2022-11-27T14:28:26.489Z,6.10
2022-11-27T14:30:58.597Z,6.02
2022-11-27T14:33:59.792Z,6.07
2022-11-27T14:36:39.869Z,6.06
2022-11-27T14:39:25.212Z,6.08
2022-11-27T14:42:04.239Z,6.15
2022-11-27T14:44:35.603Z,6.13
2022-11-27T14:47:17.502Z,6.11
2022-11-27T14:49:50.598Z,6.13
2022-11-27T14:52:24.159Z,6.02
2022-11-27T14:54:53.189Z,6.05
2022-11-27T14:57:30.315Z,6.01
2022-11-27T15:00:27.847Z,6.06
2022-11-27T15:03:07.763Z,6.00
2022-11-27T15:05:39.559Z,6.02
2022-11-27T15:08:12.918Z,6.11
2022-11-27T15:10:43.126Z,6.07
2022-11-27T15:13:41.291Z,6.02
2022-11-27T15:16:22.828Z,5.98
2022-11-27T15:19:57.048Z,5.99
2022-11-27T15:22:26.285Z,5.93
2022-11-27T15:25:08.608Z,5.96
2022-11-27T15:27:48.502Z,5.99
2022-11-27T15:30:21.735Z,5.92
2022-11-27T15:32:54.860Z,5.96
2022-11-27T15:35:33.199Z,5.94
2022-11-27T15:38:25.621Z,6.00
2022-11-27T15:41:02.216Z,5.94
2022-11-27T15:43:33.350Z,6.01
2022-11-27T15:46:15.664Z,5.98
2022-11-27T15:48:48.968Z,5.97
2022-11-27T15:51:18.018Z,6.02
2022-11-27T15:53:56.836Z,6.11
2022-11-27T15:56:26.185Z,6.03
2022-11-27T15:58:56.030Z,6.00
2022-11-27T16:01:30.709Z,6.13
2022-11-27T16:04:19.157Z,6.10
2022-11-27T16:06:50.301Z,6.03
2022-11-27T16:09:27.888Z,6.11
2022-11-27T16:11:57.333Z,6.09
2022-11-27T16:14:28.747Z,6.06
2022-11-27T16:17:01.867Z,6.17
2022-11-27T16:19:35.033Z,6.14
2022-11-27T16:22:04.113Z,6.04
2022-11-27T16:24:35.695Z,6.20
2022-11-27T16:27:04.424Z,6.26
2022-11-27T16:29:37.118Z,6.10
2022-11-27T16:32:07.416Z,5.98
2022-11-27T16:34:43.570Z,6.04
2022-11-27T16:37:18.261Z,6.09
2022-11-27T16:39:49.103Z,6.18
2022-11-27T16:42:17.737Z,6.16
2022-11-27T16:44:50.854Z,6.05
2022-11-27T16:47:32.102Z,6.09
2022-11-27T16:50:03.745Z,5.92
2022-11-27T16:52:33.880Z,5.94
2022-11-27T16:55:05.785Z,6.04
2022-11-27T16:57:35.041Z,5.96
2022-11-27T17:00:06.149Z,5.96
2022-11-27T17:02:35.250Z,5.95
2022-11-27T17:05:18.957Z,5.90
2022-11-27T17:07:49.253Z,5.93
2022-11-27T17:10:22.416Z,5.94
2022-11-27T17:12:51.501Z,5.91
2022-11-27T17:15:21.880Z,5.94
2022-11-27T17:17:57.839Z,5.91
2022-11-27T17:20:27.089Z,5.86
2022-11-27T17:22:57.315Z,5.84
2022-11-27T17:25:27.762Z,5.85
2022-11-27T17:27:57.261Z,5.93
2022-11-27T17:30:26.175Z,5.93
2022-11-27T17:32:58.411Z,5.88
2022-11-27T17:35:30.700Z,6.01
2022-11-27T17:38:01.113Z,6.02
2022-11-27T17:40:31.971Z,5.99
2022-11-27T17:43:05.616Z,5.97
2022-11-27T17:45:42.402Z,5.94
2022-11-27T17:48:29.798Z,6.01
2022-11-27T17:51:02.259Z,5.96
2022-11-27T17:53:47.477Z,5.96
2022-11-27T17:56:23.091Z,5.99
2022-11-27T17:58:56.441Z,6.02
2022-11-27T18:04:48.694Z,5.79
2022-11-27T18:07:20.820Z,5.79
2022-11-27T18:09:56.350Z,6.09
2022-11-27T18:12:28.593Z,5.95
2022-11-27T18:17:49.189Z,5.92
2022-11-27T18:20:28.957Z,5.83
2022-11-27T18:23:00.649Z,5.81
2022-11-27T18:25:32.986Z,5.86
2022-11-27T18:30:48.898Z,5.83
2022-11-27T18:33:23.421Z,5.82
2022-11-27T18:36:09.738Z,5.96
2022-11-27T18:41:30.296Z,5.87
2022-11-27T18:43:59.169Z,5.80
2022-11-27T18:46:29.440Z,5.74
2022-11-27T18:48:59.452Z,5.81
2022-11-27T18:51:33.116Z,5.85
2022-11-27T18:54:11.232Z,5.95
2022-11-27T18:56:40.381Z,5.81
2022-11-27T18:59:11.270Z,5.85
2022-11-27T19:01:43.017Z,5.84
2022-11-27T19:04:20.205Z,5.78
2022-11-27T19:06:51.812Z,5.87
2022-11-27T19:09:23.421Z,5.90
2022-11-27T19:11:56.441Z,5.93
2022-11-27T19:14:28.058Z,5.90
2022-11-27T19:16:59.923Z,5.88
2022-11-27T19:22:18.620Z,5.90
2022-11-27T19:24:49.352Z,5.86
2022-11-27T19:27:21.824Z,5.84
2022-11-27T19:29:50.562Z,5.91
2022-11-27T19:32:24.178Z,5.89
2022-11-27T19:34:54.502Z,5.87
2022-11-27T19:37:34.044Z,5.91
2022-11-27T19:40:05.283Z,5.96
2022-11-27T19:42:36.989Z,5.92
2022-11-27T19:45:09.140Z,5.96
2022-11-27T19:47:37.185Z,5.84
2022-11-27T19:50:08.592Z,5.98
2022-11-27T19:52:38.247Z,5.91
2022-11-27T19:55:08.403Z,5.92
2022-11-27T19:57:37.774Z,5.89
2022-11-27T20:00:10.585Z,5.89
2022-11-27T20:02:40.546Z,5.92
2022-11-27T20:05:09.894Z,5.88
2022-11-27T20:07:38.761Z,5.91
2022-11-27T20:10:08.012Z,5.93
2022-11-27T20:12:41.303Z,5.98
2022-11-27T20:15:14.769Z,5.94
2022-11-27T20:17:44.411Z,5.85
2022-11-27T20:20:13.662Z,5.96
2022-11-27T20:22:42.077Z,5.92
2022-11-27T20:25:19.453Z,5.91
2022-11-27T20:27:51.123Z,5.88
2022-11-27T20:30:25.185Z,5.84
2022-11-27T20:32:55.426Z,6.02
2022-11-27T20:35:26.115Z,5.98
2022-11-27T20:37:54.217Z,5.90
2022-11-27T20:40:26.589Z,5.91
2022-11-27T20:42:55.144Z,5.94
2022-11-27T20:45:24.314Z,5.96
2022-11-27T20:47:53.050Z,5.87
2022-11-27T20:50:22.806Z,5.86
2022-11-27T20:52:51.152Z,5.88
2022-11-27T20:55:20.061Z,5.92
2022-11-27T20:57:50.836Z,5.97
2022-11-27T21:00:23.316Z,5.93
2022-11-27T21:02:52.086Z,5.89
2022-11-27T21:05:21.710Z,5.91
2022-11-27T21:07:50.266Z,5.94
2022-11-27T21:10:20.268Z,5.87
2022-11-27T21:12:51.777Z,5.93
2022-11-27T21:15:24.379Z,5.94
2022-11-27T21:17:53.385Z,5.94
2022-11-27T21:20:22.480Z,5.97
2022-11-27T21:22:54.149Z,5.91
2022-11-27T21:25:25.665Z,5.91
2022-11-27T21:27:56.179Z,5.94
2022-11-27T21:30:25.404Z,6.03
2022-11-27T21:32:54.127Z,5.99
2022-11-27T21:35:26.387Z,5.93
2022-11-27T21:37:57.068Z,5.98
2022-11-27T21:40:26.323Z,5.99
2022-11-27T21:42:54.122Z,5.98
2022-11-27T21:45:23.607Z,5.91
2022-11-27T21:47:52.131Z,5.93
2022-11-27T21:50:21.793Z,5.99
2022-11-27T21:52:52.627Z,5.97
2022-11-27T21:55:21.657Z,5.94
2022-11-27T21:57:50.206Z,6.06
2022-11-27T22:00:19.740Z,5.92
2022-11-27T22:02:49.376Z,5.91
2022-11-27T22:05:19.559Z,5.87
2022-11-27T22:07:48.287Z,6.06
2022-11-27T22:10:17.471Z,6.04
2022-11-27T22:12:45.994Z,5.99
2022-11-27T22:15:19.235Z,5.95
2022-11-27T22:17:52.805Z,5.92
2022-11-27T22:20:21.832Z,5.93
2022-11-27T22:22:50.132Z,5.96
2022-11-27T22:25:18.843Z,5.98
2022-11-27T22:27:47.047Z,5.95
2022-11-27T22:30:16.514Z,6.02
2022-11-27T22:32:45.971Z,5.96
2022-11-27T22:35:17.148Z,6.03
2022-11-27T22:37:46.316Z,6.04
2022-11-27T22:40:15.369Z,6.08
2022-11-27T22:42:44.757Z,6.10
2022-11-27T22:45:13.427Z,6.06
2022-11-27T22:47:43.034Z,6.02
2022-11-27T22:50:11.120Z,6.06
2022-11-27T22:52:40.538Z,5.99
2022-11-27T22:55:09.621Z,6.04
2022-11-27T22:57:39.289Z,6.06
2022-11-27T23:00:10.586Z,6.13
2022-11-27T23:02:39.917Z,6.07
2022-11-27T23:05:08.337Z,5.99
2022-11-27T23:07:37.518Z,6.12
2022-11-27T23:10:09.694Z,6.10
2022-11-27T23:12:40.140Z,6.13
2022-11-27T23:15:09.532Z,6.09
2022-11-27T23:17:38.480Z,6.06
2022-11-27T23:20:07.577Z,6.08
2022-11-27T23:22:37.191Z,6.08
2022-11-27T23:25:06.398Z,6.11
2022-11-27T23:27:35.321Z,6.15
2022-11-27T23:30:03.472Z,6.12
2022-11-27T23:32:33.890Z,6.09
2022-11-27T23:35:02.005Z,6.10
2022-11-27T23:37:31.614Z,6.06
2022-11-27T23:40:00.055Z,6.07
2022-11-27T23:42:29.271Z,6.08
2022-11-27T23:44:59.039Z,6.14
2022-11-27T23:47:27.077Z,6.06
2022-11-27T23:49:56.127Z,6.00
2022-11-27T23:52:25.065Z,6.09
2022-11-27T23:54:54.024Z,6.11
2022-11-27T23:57:22.937Z,6.09
2022-11-27T23:59:50.990Z,6.07
